createdAt,value
2016-04-28T00:00:18.463Z,37.99
2016-04-28T00:01:18.434Z,38.09
2016-04-28T00:02:18.421Z,37.99
2016-04-28T00:03:18.391Z,37.99
2016-04-28T00:04:18.833Z,38.18
2016-04-28T00:05:18.367Z,38.18
2016-04-28T00:06:18.182Z,38.18
2016-04-28T00:07:18.324Z,38.37
2016-04-28T00:08:18.297Z,38.47
2016-04-28T00:09:18.283Z,38.28
2016-04-28T00:10:18.270Z,38.37
2016-04-28T00:11:19.163Z,38.28
2016-04-28T00:12:18.823Z,38.56
2016-04-28T00:13:18.216Z,38.56
2016-04-28T00:14:18.204Z,38.37
2016-04-28T00:15:18.174Z,38.47
2016-04-28T00:16:18.161Z,38.66
2016-04-28T00:17:18.149Z,38.45
2016-04-28T00:18:18.120Z,38.85
2016-04-28T00:19:18.107Z,38.85
2016-04-28T00:20:18.141Z,38.85
2016-04-28T00:21:18.065Z,38.76
2016-04-28T00:22:18.037Z,38.66
2016-04-28T00:23:18.025Z,38.95
2016-04-28T00:24:18.011Z,38.74
2016-04-28T00:25:17.998Z,39.04
2016-04-28T00:26:18.767Z,38.85
2016-04-28T00:27:17.957Z,39.12
2016-04-28T00:28:18.116Z,39.03
2016-04-28T00:29:17.915Z,38.95
2016-04-28T00:30:17.903Z,39.12
2016-04-28T00:31:17.889Z,38.95
2016-04-28T00:32:17.861Z,39.31
2016-04-28T00:33:17.847Z,39.31
2016-04-28T00:34:17.819Z,39.62
2016-04-28T00:35:17.807Z,39.79
2016-04-28T00:36:18.949Z,40.1
2016-04-28T00:37:17.796Z,39.81
2016-04-28T00:38:17.768Z,39.81
2016-04-28T00:39:17.739Z,40.27
2016-04-28T00:40:17.710Z,40
2016-04-28T00:41:17.838Z,39.7
2016-04-28T00:42:17.700Z,40.17
2016-04-28T00:43:17.657Z,40.37
2016-04-28T00:44:17.643Z,40.48
2016-04-28T00:45:17.630Z,40.56
2016-04-28T00:46:17.617Z,40.37
2016-04-28T00:47:17.589Z,40.58
2016-04-28T00:48:17.560Z,40.47
2016-04-28T00:49:17.547Z,40.47
2016-04-28T00:50:17.534Z,40.84
2016-04-28T00:51:17.521Z,41.04
2016-04-28T00:52:17.493Z,40.87
2016-04-28T00:53:17.495Z,40.87
2016-04-28T00:54:17.467Z,40.75
2016-04-28T00:55:17.439Z,40.66
2016-04-28T00:56:17.425Z,40.84
2016-04-28T00:57:17.397Z,40.75
2016-04-28T00:58:17.384Z,40.75
2016-04-28T00:59:17.371Z,40.75
2016-04-28T01:00:18.045Z,40.84
2016-04-28T01:01:17.330Z,40.94
2016-04-28T01:02:17.316Z,41.04
2016-04-28T01:03:17.303Z,41.04
2016-04-28T01:04:17.291Z,40.84
2016-04-28T01:05:17.263Z,40.84
2016-04-28T01:06:17.233Z,40.94
2016-04-28T01:07:17.221Z,41.13
2016-04-28T01:08:17.254Z,41.13
2016-04-28T01:09:17.179Z,40.94
2016-04-28T01:10:17.166Z,41.42
2016-04-28T01:11:16.996Z,41.13
2016-04-28T01:12:17.140Z,41.42
2016-04-28T01:13:17.127Z,41.42
2016-04-28T01:14:17.099Z,41.23
2016-04-28T01:15:17.085Z,41.23
2016-04-28T01:16:17.307Z,41.13
2016-04-28T01:17:17.045Z,41.42
2016-04-28T01:18:17.032Z,41.42
2016-04-28T01:19:17.018Z,41.33
2016-04-28T01:20:16.974Z,41.13
2016-04-28T01:21:16.961Z,41.13
2016-04-28T01:22:16.964Z,41.23
2016-04-28T01:23:16.936Z,41.23
2016-04-28T01:24:17.313Z,41.23
2016-04-28T01:25:16.894Z,41.42
2016-04-28T01:26:16.881Z,41.23
2016-04-28T01:27:16.868Z,41.42
2016-04-28T01:28:16.683Z,41.33
2016-04-28T01:29:16.811Z,41.42
2016-04-28T01:30:16.798Z,41.42
2016-04-28T01:31:16.942Z,41.42
2016-04-28T01:32:16.756Z,41.52
2016-04-28T01:33:16.743Z,41.33
2016-04-28T01:34:16.730Z,41.42
2016-04-28T01:35:16.718Z,41.33
2016-04-28T01:36:16.689Z,41.42
2016-04-28T01:37:16.676Z,41.42
2016-04-28T01:38:16.664Z,41.52
2016-04-28T01:39:17.041Z,41.33
2016-04-28T01:40:16.622Z,41.42
2016-04-28T01:41:16.609Z,41.33
2016-04-28T01:42:16.580Z,41.42
2016-04-28T01:43:16.552Z,41.8
2016-04-28T01:44:16.539Z,41.61
2016-04-28T01:45:16.526Z,41.71
2016-04-28T01:46:16.512Z,41.52
2016-04-28T01:47:16.985Z,41.42
2016-04-28T01:48:16.471Z,41.61
2016-04-28T01:49:16.459Z,41.52
2016-04-28T01:50:16.429Z,41.61
2016-04-28T01:51:16.418Z,41.42
2016-04-28T01:52:16.404Z,41.42
2016-04-28T01:53:16.391Z,41.52
2016-04-28T01:54:16.363Z,41.42
2016-04-28T01:55:16.943Z,41.33
2016-04-28T01:56:16.181Z,41.33
2016-04-28T01:57:16.152Z,41.52
2016-04-28T01:58:16.295Z,41.52
2016-04-28T01:59:16.266Z,41.71
2016-04-28T02:00:16.239Z,41.23
2016-04-28T02:01:16.225Z,41.42
2016-04-28T02:02:16.211Z,41.42
2016-04-28T02:03:16.200Z,41.33
2016-04-28T02:04:16.171Z,41.33
2016-04-28T02:05:16.158Z,41.52
2016-04-28T02:06:16.144Z,41.71
2016-04-28T02:07:16.116Z,41.71
2016-04-28T02:08:16.103Z,41.42
2016-04-28T02:09:16.091Z,41.42
2016-04-28T02:10:16.062Z,41.33
2016-04-28T02:11:18.221Z,41.42
2016-04-28T02:12:16.864Z,41.33
2016-04-28T02:13:16.007Z,41.42
2016-04-28T02:14:15.994Z,41.61
2016-04-28T02:15:15.965Z,41.61
2016-04-28T02:16:15.954Z,41.61
2016-04-28T02:17:15.940Z,41.42
2016-04-28T02:18:15.912Z,41.61
2016-04-28T02:19:16.196Z,41.42
2016-04-28T02:20:15.885Z,41.61
2016-04-28T02:21:15.857Z,41.71
2016-04-28T02:22:15.844Z,41.8
2016-04-28T02:23:15.821Z,41.61
2016-04-28T02:24:15.809Z,41.61
2016-04-28T02:25:15.780Z,41.61
2016-04-28T02:26:15.798Z,41.61
2016-04-28T02:27:15.754Z,41.8
2016-04-28T02:28:15.725Z,41.71
2016-04-28T02:29:15.713Z,41.71
2016-04-28T02:30:15.700Z,41.71
2016-04-28T02:31:15.671Z,41.52
2016-04-28T02:32:15.658Z,41.52
2016-04-28T02:33:15.661Z,41.52
2016-04-28T02:34:15.617Z,41.61
2016-04-28T02:35:15.603Z,41.52
2016-04-28T02:36:15.592Z,41.52
2016-04-28T02:37:15.562Z,41.52
2016-04-28T02:38:15.550Z,41.8
2016-04-28T02:39:15.536Z,41.71
2016-04-28T02:40:15.507Z,41.52
2016-04-28T02:41:17.339Z,41.71
2016-04-28T02:42:15.483Z,41.61
2016-04-28T02:43:15.453Z,41.9
2016-04-28T02:44:15.440Z,41.71
2016-04-28T02:45:15.428Z,41.71
2016-04-28T02:46:15.399Z,41.61
2016-04-28T02:47:15.230Z,41.8
2016-04-28T02:48:15.357Z,41.8
2016-04-28T02:49:15.345Z,41.71
2016-04-28T02:50:15.332Z,42.47
2016-04-28T02:51:15.318Z,42.47
2016-04-28T02:52:15.290Z,42.86
2016-04-28T02:53:15.276Z,42.29
2016-04-28T02:54:15.249Z,42.47
2016-04-28T02:55:15.235Z,42.47
2016-04-28T02:56:15.488Z,42.29
2016-04-28T02:57:15.694Z,42.57
2016-04-28T02:58:15.181Z,42.47
2016-04-28T02:59:15.153Z,42.38
2016-04-28T03:00:15.155Z,42.47
2016-04-28T03:01:15.127Z,42.47
2016-04-28T03:02:15.114Z,42.47
2016-04-28T03:03:15.085Z,42.47
2016-04-28T03:04:15.072Z,42.47
2016-04-28T03:05:15.044Z,42.38
2016-04-28T03:06:15.031Z,42.57
2016-04-28T03:07:15.017Z,42.47
2016-04-28T03:08:14.989Z,42.47
2016-04-28T03:09:14.976Z,42.38
2016-04-28T03:10:14.948Z,42.47
2016-04-28T03:11:15.372Z,42.47
2016-04-28T03:12:15.125Z,42.57
2016-04-28T03:13:14.909Z,42.47
2016-04-28T03:14:14.880Z,42.38
2016-04-28T03:15:14.867Z,42.57
2016-04-28T03:16:14.839Z,42.47
2016-04-28T03:17:14.826Z,42.47
2016-04-28T03:18:14.813Z,42.57
2016-04-28T03:19:14.785Z,42.38
2016-04-28T03:20:14.771Z,42.55
2016-04-28T03:21:14.758Z,42.47
2016-04-28T03:22:14.730Z,42.36
2016-04-28T03:23:14.718Z,42.46
2016-04-28T03:24:14.704Z,42.46
2016-04-28T03:25:14.676Z,42.36
2016-04-28T03:26:14.788Z,42.67
2016-04-28T03:27:14.634Z,42.46
2016-04-28T03:28:14.621Z,42.38
2016-04-28T03:29:14.608Z,42.46
2016-04-28T03:30:14.596Z,42.36
2016-04-28T03:31:14.567Z,42.46
2016-04-28T03:32:14.538Z,42.55
2016-04-28T03:33:14.540Z,42.46
2016-04-28T03:34:14.512Z,42.36
2016-04-28T03:35:14.500Z,42.36
2016-04-28T03:36:14.470Z,42.47
2016-04-28T03:37:14.458Z,42.36
2016-04-28T03:38:14.445Z,42.36
2016-04-28T03:39:14.417Z,42.36
2016-04-28T03:40:14.403Z,42.36
2016-04-28T03:41:14.436Z,42.27
2016-04-28T03:42:14.378Z,42.46
2016-04-28T03:43:14.333Z,42.36
2016-04-28T03:44:14.320Z,42.55
2016-04-28T03:45:14.307Z,42.46
2016-04-28T03:46:14.295Z,42.36
2016-04-28T03:47:14.266Z,42.47
2016-04-28T03:48:14.252Z,42.55
2016-04-28T03:49:14.241Z,42.29
2016-04-28T03:50:14.211Z,42.55
2016-04-28T03:51:14.199Z,42.36
2016-04-28T03:52:14.170Z,42.36
2016-04-28T03:53:14.157Z,42.55
2016-04-28T03:54:14.129Z,42.84
2016-04-28T03:55:14.224Z,42.55
2016-04-28T03:56:14.212Z,42.36
2016-04-28T03:57:14.824Z,42.65
2016-04-28T03:58:14.077Z,42.65
2016-04-28T03:59:14.048Z,42.84
2016-04-28T04:00:14.020Z,42.67
2016-04-28T04:01:14.023Z,42.74
2016-04-28T04:02:13.994Z,42.46
2016-04-28T04:03:14.215Z,42.36
2016-04-28T04:04:13.953Z,41.52
2016-04-28T04:05:13.940Z,40.89
2016-04-28T04:06:13.911Z,39.56
2016-04-28T04:07:13.898Z,38.53
2016-04-28T04:08:13.869Z,37.39
2016-04-28T04:09:13.872Z,35.97
2016-04-28T04:10:13.844Z,35.31
2016-04-28T04:11:14.222Z,34.56
2016-04-28T04:12:13.895Z,34.46
2016-04-28T04:13:13.789Z,33.81
2016-04-28T04:14:13.776Z,32.75
2016-04-28T04:15:13.747Z,32.67
2016-04-28T04:16:13.735Z,31.72
2016-04-28T04:17:13.722Z,31.45
2016-04-28T04:18:13.709Z,30.96
2016-04-28T04:19:14.243Z,30.87
2016-04-28T04:20:13.666Z,30.59
2016-04-28T04:21:13.655Z,30.49
2016-04-28T04:22:13.641Z,30.01
2016-04-28T04:23:13.613Z,30.21
2016-04-28T04:24:13.599Z,30
2016-04-28T04:25:13.588Z,30.38
2016-04-28T04:26:16.058Z,30.19
2016-04-28T04:27:14.249Z,30.38
2016-04-28T04:28:13.532Z,30.48
2016-04-28T04:29:13.520Z,30.58
2016-04-28T04:30:13.491Z,30.85
2016-04-28T04:31:13.478Z,31.33
2016-04-28T04:32:13.465Z,31.51
2016-04-28T04:33:13.452Z,31.6
2016-04-28T04:34:13.439Z,31.9
2016-04-28T04:35:13.520Z,32.36
2016-04-28T04:36:13.397Z,32.26
2016-04-28T04:37:13.385Z,32.65
2016-04-28T04:38:13.372Z,32.84
2016-04-28T04:39:13.343Z,32.75
2016-04-28T04:40:13.331Z,32.75
2016-04-28T04:41:13.520Z,32.56
2016-04-28T04:42:14.039Z,32.84
2016-04-28T04:43:13.525Z,32.56
2016-04-28T04:44:13.263Z,32.54
2016-04-28T04:45:13.250Z,32.56
2016-04-28T04:46:13.237Z,33.12
2016-04-28T04:47:13.224Z,32.65
2016-04-28T04:48:13.196Z,32.94
2016-04-28T04:49:13.183Z,32.46
2016-04-28T04:50:13.169Z,32.65
2016-04-28T04:51:13.547Z,32.64
2016-04-28T04:52:13.128Z,32.64
2016-04-28T04:53:13.100Z,32.56
2016-04-28T04:54:13.102Z,32.54
2016-04-28T04:55:13.074Z,33.4
2016-04-28T04:56:12.952Z,33.21
2016-04-28T04:57:15.407Z,33.23
2016-04-28T04:58:13.176Z,33.21
2016-04-28T04:59:13.006Z,33.31
2016-04-28T05:00:12.994Z,33.4
2016-04-28T05:01:12.965Z,33.21
2016-04-28T05:02:12.952Z,33.12
2016-04-28T05:03:12.939Z,33.23
2016-04-28T05:04:12.926Z,32.56
2016-04-28T05:05:12.898Z,33.03
2016-04-28T05:06:13.134Z,32.56
2016-04-28T05:07:12.872Z,32.65
2016-04-28T05:08:12.859Z,32.47
2016-04-28T05:09:12.846Z,32.38
2016-04-28T05:10:12.817Z,32.47
2016-04-28T05:11:12.647Z,32.76
2016-04-28T05:12:12.775Z,32.28
2016-04-28T05:13:12.764Z,32.18
2016-04-28T05:14:13.141Z,32.28
2016-04-28T05:15:12.736Z,32.28
2016-04-28T05:16:12.709Z,32.09
2016-04-28T05:17:12.695Z,32.38
2016-04-28T05:18:12.683Z,32.38
2016-04-28T05:19:12.654Z,32.67
2016-04-28T05:20:12.642Z,32.75
2016-04-28T05:21:12.627Z,32.75
2016-04-28T05:22:13.147Z,32.56
2016-04-28T05:23:12.586Z,33.13
2016-04-28T05:24:12.573Z,33.13
2016-04-28T05:25:12.545Z,33.5
2016-04-28T05:26:12.830Z,33.5
2016-04-28T05:27:14.332Z,33.59
2016-04-28T05:28:12.506Z,33.59
2016-04-28T05:29:12.494Z,33.69
2016-04-28T05:30:13.168Z,33.69
2016-04-28T05:31:12.452Z,33.5
2016-04-28T05:32:12.439Z,33.59
2016-04-28T05:33:12.411Z,33.4
2016-04-28T05:34:12.397Z,33.4
2016-04-28T05:35:12.385Z,33.71
2016-04-28T05:36:12.371Z,33.69
2016-04-28T05:37:12.342Z,33.69
2016-04-28T05:38:13.173Z,33.51
2016-04-28T05:39:12.318Z,33.81
2016-04-28T05:40:12.289Z,33.5
2016-04-28T05:41:13.228Z,33.42
2016-04-28T05:42:12.262Z,33.91
2016-04-28T05:43:12.250Z,33.89
2016-04-28T05:44:12.237Z,33.69
2016-04-28T05:45:12.209Z,33.91
2016-04-28T05:46:13.289Z,33.33
2016-04-28T05:47:12.182Z,33.42
2016-04-28T05:48:12.170Z,33.51
2016-04-28T05:49:12.156Z,33.61
2016-04-28T05:50:12.128Z,33.42
2016-04-28T05:51:12.099Z,33.42
2016-04-28T05:52:12.087Z,33.33
2016-04-28T05:53:12.058Z,33.33
2016-04-28T05:54:12.452Z,33.03
2016-04-28T05:55:12.047Z,33.42
2016-04-28T05:56:12.019Z,33.23
2016-04-28T05:57:13.366Z,33.33
2016-04-28T05:58:11.977Z,33.51
2016-04-28T05:59:11.965Z,33.51
2016-04-28T06:00:11.952Z,33.61
2016-04-28T06:01:11.944Z,33.33
2016-04-28T06:02:11.957Z,33.51
2016-04-28T06:03:11.985Z,33.71
2016-04-28T06:04:11.996Z,33.81
2016-04-28T06:05:12.040Z,33.79
2016-04-28T06:06:12.048Z,33.59
2016-04-28T06:07:12.034Z,33.98
2016-04-28T06:08:12.036Z,33.59
2016-04-28T06:09:12.054Z,34.08
2016-04-28T06:10:12.023Z,34.08
2016-04-28T06:11:12.040Z,33.69
2016-04-28T06:12:12.688Z,33.69
2016-04-28T06:13:12.008Z,33.71
2016-04-28T06:14:12.000Z,33.61
2016-04-28T06:15:11.978Z,33.81
2016-04-28T06:16:11.968Z,33.61
2016-04-28T06:17:11.942Z,33.81
2016-04-28T06:18:11.930Z,33.71
2016-04-28T06:19:11.935Z,33.61
2016-04-28T06:20:11.909Z,33.71
2016-04-28T06:21:11.882Z,33.71
2016-04-28T06:22:11.886Z,33.61
2016-04-28T06:23:11.857Z,33.51
2016-04-28T06:24:11.845Z,33.61
2016-04-28T06:25:11.833Z,33.63
2016-04-28T06:26:11.806Z,33.25
2016-04-28T06:27:11.792Z,33.53
2016-04-28T06:28:11.765Z,33.33
2016-04-28T06:29:11.751Z,33.61
2016-04-28T06:30:11.740Z,33.81
2016-04-28T06:31:11.727Z,33.81
2016-04-28T06:32:11.698Z,33.71
2016-04-28T06:33:11.686Z,33.71
2016-04-28T06:34:11.673Z,33.91
2016-04-28T06:35:11.644Z,33.61
2016-04-28T06:36:11.647Z,33.44
2016-04-28T06:37:11.634Z,33.05
2016-04-28T06:38:11.604Z,32.57
2016-04-28T06:39:11.576Z,33.44
2016-04-28T06:40:11.579Z,33.44
2016-04-28T06:41:11.551Z,33.63
2016-04-28T06:42:11.537Z,33.92
2016-04-28T06:43:11.509Z,33.63
2016-04-28T06:44:11.496Z,33.63
2016-04-28T06:45:11.483Z,33.71
2016-04-28T06:46:11.455Z,34.3
2016-04-28T06:47:11.442Z,34.67
2016-04-28T06:48:11.429Z,34.77
2016-04-28T06:49:11.400Z,34.86
2016-04-28T06:50:11.387Z,34.96
2016-04-28T06:51:11.374Z,35.04
2016-04-28T06:52:11.362Z,35.24
2016-04-28T06:53:11.349Z,35.04
2016-04-28T06:54:11.320Z,35.62
2016-04-28T06:55:11.307Z,36.1
2016-04-28T06:56:11.310Z,35.6
2016-04-28T06:57:11.485Z,35.52
2016-04-28T06:58:11.252Z,36.1
2016-04-28T06:59:11.240Z,35.7
2016-04-28T07:00:11.226Z,36.27
2016-04-28T07:01:11.198Z,36.47
2016-04-28T07:02:11.186Z,36.37
2016-04-28T07:03:11.172Z,36.18
2016-04-28T07:04:11.159Z,35.79
2016-04-28T07:05:11.132Z,35.79
2016-04-28T07:06:11.118Z,35.42
2016-04-28T07:07:11.104Z,34.77
2016-04-28T07:08:11.092Z,34.67
2016-04-28T07:09:11.063Z,34.67
2016-04-28T07:10:11.034Z,34.48
2016-04-28T07:11:11.038Z,34.29
2016-04-28T07:12:11.228Z,33.63
2016-04-28T07:13:10.996Z,33.82
2016-04-28T07:14:10.984Z,33.44
2016-04-28T07:15:10.954Z,33.44
2016-04-28T07:16:10.942Z,33.44
2016-04-28T07:17:10.928Z,33.44
2016-04-28T07:18:10.916Z,33.34
2016-04-28T07:19:10.887Z,33.34
2016-04-28T07:20:10.874Z,33.34
2016-04-28T07:21:10.861Z,33.34
2016-04-28T07:22:10.755Z,33.05
2016-04-28T07:23:10.821Z,32.95
2016-04-28T07:24:10.793Z,32.95
2016-04-28T07:25:10.795Z,32.95
2016-04-28T07:26:10.767Z,33.25
2016-04-28T07:27:10.785Z,32.95
2016-04-28T07:28:10.740Z,33.05
2016-04-28T07:29:10.711Z,33.15
2016-04-28T07:30:10.745Z,33.34
2016-04-28T07:31:10.686Z,32.95
2016-04-28T07:32:10.673Z,32.95
2016-04-28T07:33:10.645Z,32.67
2016-04-28T07:34:10.632Z,32.76
2016-04-28T07:35:10.619Z,32.47
2016-04-28T07:36:10.591Z,32.47
2016-04-28T07:37:10.577Z,32.57
2016-04-28T07:38:10.767Z,32.86
2016-04-28T07:39:10.551Z,32.47
2016-04-28T07:40:10.522Z,32.67
2016-04-28T07:41:10.510Z,32.95
2016-04-28T07:42:10.497Z,33.05
2016-04-28T07:43:10.484Z,33.34
2016-04-28T07:44:10.518Z,33.44
2016-04-28T07:45:10.521Z,33.05
2016-04-28T07:46:10.774Z,32.95
2016-04-28T07:47:10.402Z,32.57
2016-04-28T07:48:10.232Z,32.57
2016-04-28T07:49:10.375Z,32.57
2016-04-28T07:50:10.362Z,32.86
2016-04-28T07:51:10.349Z,32.57
2016-04-28T07:52:10.320Z,32.95
2016-04-28T07:53:10.307Z,32.47
2016-04-28T07:54:10.795Z,32.78
2016-04-28T07:55:10.173Z,32.67
2016-04-28T07:56:18.973Z,32.57
2016-04-28T07:57:10.601Z,32.47
2016-04-28T07:58:10.478Z,32.57
2016-04-28T07:59:10.215Z,32.76
2016-04-28T08:00:10.186Z,32.57
2016-04-28T08:01:10.173Z,32.38
2016-04-28T08:02:10.801Z,32.57
2016-04-28T08:03:10.131Z,33.34
2016-04-28T08:04:10.119Z,33.25
2016-04-28T08:05:10.105Z,33.82
2016-04-28T08:06:10.124Z,33.53
2016-04-28T08:07:10.067Z,33.44
2016-04-28T08:08:09.923Z,33.82
2016-04-28T08:09:10.018Z,33.82
2016-04-28T08:10:10.053Z,33.73
2016-04-28T08:11:09.977Z,33.63
2016-04-28T08:12:10.042Z,34.69
2016-04-28T08:13:12.467Z,34.69
2016-04-28T08:14:09.938Z,34.5
2016-04-28T08:15:09.910Z,30.34
2016-04-28T08:16:09.897Z,29.86
2016-04-28T08:17:09.900Z,30.91
2016-04-28T08:18:10.059Z,31.87
2016-04-28T08:19:09.687Z,32.64
2016-04-28T08:20:09.830Z,32.54
2016-04-28T08:21:09.816Z,32.44
2016-04-28T08:22:09.788Z,32.64
2016-04-28T08:23:09.775Z,32.56
2016-04-28T08:24:09.747Z,32.28
2016-04-28T08:25:09.749Z,32.36
2016-04-28T08:26:10.080Z,32.09
2016-04-28T08:27:09.708Z,32.28
2016-04-28T08:28:10.805Z,31.99
2016-04-28T08:29:09.683Z,32.28
2016-04-28T08:30:09.653Z,31.99
2016-04-28T08:31:09.641Z,32.09
2016-04-28T08:32:09.643Z,31.99
2016-04-28T08:33:09.661Z,32.09
2016-04-28T08:34:10.789Z,31.9
2016-04-28T08:35:09.573Z,31.6
2016-04-28T08:36:09.544Z,31.6
2016-04-28T08:37:09.532Z,31.9
2016-04-28T08:38:09.518Z,31.32
2016-04-28T08:39:09.490Z,31.51
2016-04-28T08:40:09.476Z,31.6
2016-04-28T08:41:09.715Z,31.22
2016-04-28T08:42:10.046Z,31.7
2016-04-28T08:43:09.438Z,31.8
2016-04-28T08:44:09.410Z,31.7
2016-04-28T08:45:09.412Z,31.41
2016-04-28T08:46:09.384Z,31.32
2016-04-28T08:47:09.356Z,30.93
2016-04-28T08:48:09.342Z,31.59
2016-04-28T08:49:09.673Z,31.59
2016-04-28T08:50:09.317Z,31.59
2016-04-28T08:51:09.304Z,31.69
2016-04-28T08:52:09.275Z,32.15
2016-04-28T08:53:09.262Z,32.06
2016-04-28T08:54:09.233Z,32.06
2016-04-28T08:55:09.220Z,32.06
2016-04-28T08:56:09.208Z,31.95
2016-04-28T08:57:11.914Z,32.33
2016-04-28T08:58:11.525Z,32.33
2016-04-28T08:59:09.169Z,32.23
2016-04-28T09:00:09.140Z,32.62
2016-04-28T09:01:09.111Z,32.62
2016-04-28T09:02:09.099Z,32.43
2016-04-28T09:03:08.930Z,31.64
2016-04-28T09:04:09.074Z,32.51
2016-04-28T09:05:09.701Z,32.21
2016-04-28T09:06:09.032Z,32.41
2016-04-28T09:07:09.019Z,32.79
2016-04-28T09:08:08.990Z,32.51
2016-04-28T09:09:08.993Z,32.89
2016-04-28T09:10:08.964Z,32.51
2016-04-28T09:11:08.951Z,33.28
2016-04-28T09:12:10.673Z,33.26
2016-04-28T09:13:08.801Z,33.45
2016-04-28T09:14:08.897Z,33.74
2016-04-28T09:15:08.868Z,33.74
2016-04-28T09:16:08.856Z,33.74
2016-04-28T09:17:08.826Z,33.64
2016-04-28T09:18:08.829Z,33.74
2016-04-28T09:19:08.801Z,34.51
2016-04-28T09:20:08.787Z,34.31
2016-04-28T09:21:09.009Z,34.41
2016-04-28T09:22:08.747Z,34.51
2016-04-28T09:23:08.749Z,34.7
2016-04-28T09:24:08.720Z,34.8
2016-04-28T09:25:08.692Z,34.61
2016-04-28T09:26:08.679Z,34.99
2016-04-28T09:27:09.010Z,34.88
2016-04-28T09:28:08.638Z,34.97
2016-04-28T09:29:09.718Z,35.26
2016-04-28T09:30:08.627Z,35.26
2016-04-28T09:31:08.613Z,35.36
2016-04-28T09:32:08.585Z,35.55
2016-04-28T09:33:08.558Z,35.55
2016-04-28T09:34:08.544Z,35.36
2016-04-28T09:35:08.515Z,35.74
2016-04-28T09:36:08.502Z,35.36
2016-04-28T09:37:08.490Z,35.45
2016-04-28T09:38:08.461Z,35.83
2016-04-28T09:39:08.448Z,35.45
2016-04-28T09:40:08.435Z,35.45
2016-04-28T09:41:08.422Z,36.03
2016-04-28T09:42:09.378Z,35.93
2016-04-28T09:43:08.382Z,36.22
2016-04-28T09:44:08.352Z,35.93
2016-04-28T09:45:08.340Z,35.93
2016-04-28T09:46:08.342Z,35.83
2016-04-28T09:47:09.157Z,35.55
2016-04-28T09:48:08.284Z,35.93
2016-04-28T09:49:08.287Z,35.83
2016-04-28T09:50:08.259Z,36.03
2016-04-28T09:51:08.246Z,36.03
2016-04-28T09:52:08.217Z,35.83
2016-04-28T09:53:08.205Z,36.51
2016-04-28T09:54:08.192Z,36.32
2016-04-28T09:55:08.163Z,36.41
2016-04-28T09:56:08.150Z,36.22
2016-04-28T09:57:07.996Z,36.51
2016-04-28T09:58:08.108Z,36.51
2016-04-28T09:59:08.096Z,36.22
2016-04-28T10:00:08.083Z,36.41
2016-04-28T10:01:08.055Z,36.7
2016-04-28T10:02:08.041Z,36.8
2016-04-28T10:03:08.028Z,36.7
2016-04-28T10:04:08.000Z,36.13
2016-04-28T10:05:08.002Z,36.8
2016-04-28T10:06:07.974Z,36.32
2016-04-28T10:07:07.961Z,36.22
2016-04-28T10:08:07.949Z,36.05
2016-04-28T10:09:07.905Z,36.15
2016-04-28T10:10:07.907Z,36.24
2016-04-28T10:11:07.894Z,36.05
2016-04-28T10:12:08.819Z,35.95
2016-04-28T10:13:08.148Z,36.24
2016-04-28T10:14:07.823Z,36.33
2016-04-28T10:15:07.811Z,36.05
2016-04-28T10:16:07.798Z,35.85
2016-04-28T10:17:07.925Z,35.85
2016-04-28T10:18:07.772Z,35.85
2016-04-28T10:19:07.743Z,35.95
2016-04-28T10:20:07.730Z,36.24
2016-04-28T10:21:07.702Z,36.15
2016-04-28T10:22:07.533Z,36.53
2016-04-28T10:23:07.661Z,36.33
2016-04-28T10:24:07.663Z,36.15
2016-04-28T10:25:07.932Z,36.33
2016-04-28T10:26:07.622Z,36.33
2016-04-28T10:27:07.640Z,36.41
2016-04-28T10:28:07.580Z,36.82
2016-04-28T10:29:07.552Z,36.22
2016-04-28T10:30:07.539Z,36.72
2016-04-28T10:31:07.525Z,36.51
2016-04-28T10:32:07.513Z,36.6
2016-04-28T10:33:07.938Z,36.72
2016-04-28T10:34:07.471Z,36.8
2016-04-28T10:35:07.458Z,36.8
2016-04-28T10:36:07.446Z,36.8
2016-04-28T10:37:07.417Z,36.8
2016-04-28T10:38:07.405Z,36.6
2016-04-28T10:39:07.390Z,36.99
2016-04-28T10:40:07.362Z,36.99
2016-04-28T10:41:07.943Z,36.99
2016-04-28T10:42:07.399Z,37.08
2016-04-28T10:43:07.495Z,37.18
2016-04-28T10:44:07.295Z,37.18
2016-04-28T10:45:07.313Z,37.18
2016-04-28T10:46:07.332Z,37.27
2016-04-28T10:47:07.319Z,37.18
2016-04-28T10:48:07.274Z,36.99
2016-04-28T10:49:08.074Z,37.18
2016-04-28T10:50:07.280Z,37.08
2016-04-28T10:51:07.204Z,36.9
2016-04-28T10:52:07.192Z,37.08
2016-04-28T10:53:07.162Z,37.27
2016-04-28T10:54:07.150Z,37.37
2016-04-28T10:55:07.090Z,37.18
2016-04-28T10:56:07.093Z,37.18
2016-04-28T10:57:07.220Z,36.99
2016-04-28T10:58:07.051Z,36.91
2016-04-28T10:59:07.039Z,36.91
2016-04-28T11:00:07.010Z,36.82
2016-04-28T11:01:06.997Z,36.72
2016-04-28T11:02:07.312Z,36.82
2016-04-28T11:03:07.003Z,36.24
2016-04-28T11:04:06.942Z,36.15
2016-04-28T11:05:07.274Z,36.24
2016-04-28T11:06:06.901Z,36.05
2016-04-28T11:07:06.888Z,36.43
2016-04-28T11:08:06.891Z,35.77
2016-04-28T11:09:06.846Z,35.68
2016-04-28T11:10:06.833Z,35.68
2016-04-28T11:11:06.821Z,35.58
2016-04-28T11:12:06.902Z,35.39
2016-04-28T11:13:07.498Z,35.77
2016-04-28T11:14:06.766Z,36.07
2016-04-28T11:15:06.754Z,36.07
2016-04-28T11:16:06.724Z,36.24
2016-04-28T11:17:06.727Z,36.33
2016-04-28T11:18:06.699Z,36.33
2016-04-28T11:19:06.529Z,36.15
2016-04-28T11:20:06.907Z,36.43
2016-04-28T11:21:06.638Z,36.33
2016-04-28T11:22:06.626Z,36.53
2016-04-28T11:23:06.614Z,36.72
2016-04-28T11:24:06.631Z,36.33
2016-04-28T11:25:06.572Z,36.33
2016-04-28T11:26:06.558Z,36.33
2016-04-28T11:27:07.717Z,36.24
2016-04-28T11:28:08.158Z,36.43
2016-04-28T11:29:06.504Z,36.91
2016-04-28T11:30:06.491Z,36.62
2016-04-28T11:31:06.477Z,34.12
2016-04-28T11:32:06.450Z,28.85
2016-04-28T11:33:06.422Z,26.16
2016-04-28T11:34:06.408Z,24.99
2016-04-28T11:35:06.395Z,25.28
2016-04-28T11:36:06.882Z,26.53
2016-04-28T11:37:06.368Z,27.39
2016-04-28T11:38:06.340Z,27.7
2016-04-28T11:39:06.327Z,27.89
2016-04-28T11:40:06.315Z,27.13
2016-04-28T11:41:06.287Z,27.24
2016-04-28T11:42:06.117Z,26.97
2016-04-28T11:43:06.307Z,26.31
2016-04-28T11:44:06.888Z,26.31
2016-04-28T11:45:06.219Z,25.74
2016-04-28T11:46:06.190Z,25.18
2016-04-28T11:47:06.193Z,25.27
2016-04-28T11:48:06.165Z,24.99
2016-04-28T11:49:06.151Z,24.8
2016-04-28T11:50:05.967Z,24.52
2016-04-28T11:51:06.126Z,24.91
2016-04-28T11:52:06.145Z,24.62
2016-04-28T11:53:06.084Z,24.72
2016-04-28T11:54:06.055Z,24.82
2016-04-28T11:55:06.042Z,24.72
2016-04-28T11:56:06.030Z,24.92
2016-04-28T11:57:06.017Z,24.72
2016-04-28T11:58:06.004Z,24.63
2016-04-28T11:59:05.975Z,24.34
2016-04-28T12:00:06.166Z,24.82
2016-04-28T12:01:05.950Z,24.54
2016-04-28T12:02:05.921Z,24.54
2016-04-28T12:03:05.924Z,24.91
2016-04-28T12:04:05.988Z,25.02
2016-04-28T12:05:05.882Z,24.81
2016-04-28T12:06:05.854Z,25.01
2016-04-28T12:07:05.857Z,25.2
2016-04-28T12:08:06.171Z,25.2
2016-04-28T12:09:05.815Z,25.39
2016-04-28T12:10:05.817Z,25.38
2016-04-28T12:11:05.773Z,25.48
2016-04-28T12:12:06.729Z,25.76
2016-04-28T12:13:05.966Z,25.96
2016-04-28T12:14:05.718Z,26.25
2016-04-28T12:15:05.706Z,26.15
2016-04-28T12:16:05.693Z,26.43
2016-04-28T12:17:05.696Z,26.33
2016-04-28T12:18:05.667Z,26.81
2016-04-28T12:19:05.654Z,26.72
2016-04-28T12:20:05.470Z,26.72
2016-04-28T12:21:05.613Z,27.29
2016-04-28T12:22:05.600Z,27.11
2016-04-28T12:23:05.587Z,27.68
2016-04-28T12:24:05.558Z,27.96
2016-04-28T12:25:05.545Z,27.57
2016-04-28T12:26:05.532Z,28.15
2016-04-28T12:27:05.785Z,27.86
2016-04-28T12:28:07.506Z,28.07
2016-04-28T12:29:05.478Z,27.97
2016-04-28T12:30:05.465Z,28.26
2016-04-28T12:31:05.436Z,27.97
2016-04-28T12:32:05.424Z,27.89
2016-04-28T12:33:05.411Z,27.6
2016-04-28T12:34:05.383Z,27.6
2016-04-28T12:35:05.368Z,27.31
2016-04-28T12:36:05.355Z,27.22
2016-04-28T12:37:05.343Z,27.4
2016-04-28T12:38:05.424Z,27.03
2016-04-28T12:39:05.318Z,27.23
2016-04-28T12:40:05.289Z,27.23
2016-04-28T12:41:05.276Z,27.33
2016-04-28T12:42:05.294Z,27.51
2016-04-28T12:43:05.219Z,26.84
2016-04-28T12:44:05.222Z,26.93
2016-04-28T12:45:05.208Z,27.51
2016-04-28T12:46:05.195Z,26.95
2016-04-28T12:47:05.167Z,26.86
2016-04-28T12:48:05.170Z,26.76
2016-04-28T12:49:05.156Z,27.14
2016-04-28T12:50:05.112Z,27.14
2016-04-28T12:51:05.115Z,26.46
2016-04-28T12:52:05.087Z,26.46
2016-04-28T12:53:05.058Z,26.28
2016-04-28T12:54:05.061Z,26.19